createdAt,value
2023-09-08T00:01:29.656Z,67.88
2023-09-08T00:03:57.743Z,67.68
2023-09-08T00:06:25.618Z,67.72
2023-09-08T00:08:53.516Z,67.75
2023-09-08T00:11:21.489Z,67.96
2023-09-08T00:13:51.486Z,68.04
2023-09-08T00:16:19.637Z,68.04
2023-09-08T00:18:47.854Z,67.86
2023-09-08T00:21:15.695Z,67.92
2023-09-08T00:23:43.472Z,67.95
2023-09-08T00:26:11.439Z,67.96
2023-09-08T00:28:39.616Z,68.04
2023-09-08T00:31:07.409Z,68.00
2023-09-08T00:33:35.285Z,68.15
2023-09-08T00:36:03.358Z,68.26
2023-09-08T00:38:32.075Z,68.11
2023-09-08T00:41:02.147Z,68.26
2023-09-08T00:43:30.007Z,68.42
2023-09-08T00:46:00.510Z,68.28
2023-09-08T00:48:28.770Z,68.41
2023-09-08T00:50:57.507Z,68.61
2023-09-08T00:53:25.511Z,68.59
2023-09-08T00:55:53.692Z,68.63
2023-09-08T00:58:21.898Z,68.54
2023-09-08T01:00:50.213Z,68.61
2023-09-08T01:03:18.266Z,68.54
2023-09-08T01:05:48.073Z,68.76
2023-09-08T01:08:16.535Z,68.62
2023-09-08T01:10:44.485Z,68.84
2023-09-08T01:13:12.625Z,69.09
2023-09-08T01:15:40.630Z,69.33
2023-09-08T01:18:09.014Z,69.26
2023-09-08T01:21:06.856Z,69.48
2023-09-08T01:23:56.756Z,69.30
2023-09-08T01:26:28.449Z,69.32
2023-09-08T01:28:56.951Z,69.20
2023-09-08T01:31:24.976Z,69.39
2023-09-08T01:33:53.098Z,69.26
2023-09-08T01:36:21.224Z,69.29
2023-09-08T01:38:49.887Z,69.32
2023-09-08T01:41:17.728Z,69.44
2023-09-08T01:43:45.635Z,69.30
2023-09-08T01:46:14.149Z,69.36
2023-09-08T01:48:42.186Z,69.32
2023-09-08T01:51:10.135Z,69.34
2023-09-08T01:53:37.984Z,69.41
2023-09-08T01:56:09.295Z,69.51
2023-09-08T01:58:37.408Z,69.51
2023-09-08T02:01:07.217Z,69.41
2023-09-08T02:03:35.207Z,69.58
2023-09-08T02:06:03.084Z,69.58
2023-09-08T02:08:30.864Z,69.83
2023-09-08T02:10:58.793Z,69.59
2023-09-08T02:13:26.778Z,69.72
2023-09-08T02:15:54.641Z,69.76
2023-09-08T02:18:22.760Z,69.99
2023-09-08T02:20:53.047Z,69.83
2023-09-08T02:23:20.874Z,69.81
2023-09-08T02:25:48.854Z,69.91
2023-09-08T02:28:17.104Z,69.69
2023-09-08T02:30:44.904Z,69.90
2023-09-08T02:33:12.907Z,69.95
2023-09-08T02:35:40.874Z,69.88
2023-09-08T02:38:09.274Z,70.19
2023-09-08T02:40:37.428Z,70.19
2023-09-08T02:43:05.798Z,70.08
2023-09-08T02:45:36.026Z,70.06
2023-09-08T02:48:04.570Z,70.51
2023-09-08T02:50:32.863Z,70.34
2023-09-08T02:53:00.857Z,70.10
2023-09-08T02:55:28.820Z,70.05
2023-09-08T02:57:57.729Z,70.19
2023-09-08T03:00:26.485Z,70.11
2023-09-08T03:02:54.480Z,70.24
2023-09-08T03:05:22.475Z,70.38
2023-09-08T03:07:50.758Z,70.20
2023-09-08T03:10:18.804Z,70.27
2023-09-08T03:12:48.086Z,70.23
2023-09-08T03:15:16.272Z,70.34
2023-09-08T03:17:44.308Z,70.79
2023-09-08T03:20:12.636Z,70.86
2023-09-08T03:22:40.754Z,70.96
2023-09-08T03:25:09.160Z,71.20
2023-09-08T03:27:36.991Z,71.07
2023-09-08T03:30:05.877Z,70.85
2023-09-08T03:32:33.887Z,70.94
2023-09-08T03:35:01.909Z,71.17
2023-09-08T03:37:29.803Z,70.86
2023-09-08T03:39:57.761Z,71.24
2023-09-08T03:42:26.023Z,71.26
2023-09-08T03:44:53.895Z,71.35
2023-09-08T03:47:21.922Z,71.12
2023-09-08T03:49:49.852Z,71.38
2023-09-08T03:52:17.752Z,71.33
2023-09-08T03:54:47.634Z,71.35
2023-09-08T03:57:15.513Z,71.47
2023-09-08T03:59:43.497Z,71.44
2023-09-08T04:02:11.340Z,71.39
2023-09-08T04:04:39.150Z,71.58
2023-09-08T04:07:07.036Z,71.36
2023-09-08T04:09:34.895Z,71.64
2023-09-08T04:12:03.056Z,71.60
2023-09-08T04:14:31.756Z,71.88
2023-09-08T04:16:59.629Z,71.91
2023-09-08T04:19:27.514Z,71.57
2023-09-08T04:21:55.806Z,71.69
2023-09-08T04:24:23.746Z,71.60
2023-09-08T04:26:51.591Z,71.69
2023-09-08T04:29:20.141Z,71.97
2023-09-08T04:31:48.042Z,72.02
2023-09-08T04:34:16.206Z,71.97
2023-09-08T04:36:43.998Z,71.70
2023-09-08T04:39:12.823Z,71.68
2023-09-08T04:41:40.795Z,72.05
2023-09-08T04:44:08.768Z,71.95
2023-09-08T04:46:36.879Z,72.47
2023-09-08T04:49:05.209Z,72.52
2023-09-08T04:51:33.121Z,72.47
2023-09-08T04:54:00.986Z,72.78
2023-09-08T04:56:29.217Z,72.63
2023-09-08T04:58:57.414Z,72.70
2023-09-08T05:01:25.255Z,72.84
2023-09-08T05:03:53.297Z,72.97
2023-09-08T05:06:21.418Z,73.17
2023-09-08T05:08:49.235Z,72.95
2023-09-08T05:11:18.129Z,73.16
2023-09-08T05:13:47.930Z,73.25
2023-09-08T05:16:15.799Z,73.20
2023-09-08T05:18:43.980Z,73.42
2023-09-08T05:21:11.950Z,73.51
2023-09-08T05:23:39.815Z,73.82
2023-09-08T05:26:07.652Z,74.05
2023-09-08T05:28:38.969Z,74.19
2023-09-08T05:31:08.042Z,74.07
2023-09-08T05:33:36.115Z,73.93
2023-09-08T05:36:03.924Z,74.26
2023-09-08T05:38:32.083Z,74.55
2023-09-08T05:41:00.102Z,74.46
2023-09-08T05:43:27.969Z,74.57
2023-09-08T05:45:56.457Z,74.76
2023-09-08T05:48:24.530Z,74.81
2023-09-08T05:50:52.378Z,74.61
2023-09-08T05:53:20.280Z,74.69
2023-09-08T05:55:48.361Z,74.90
2023-09-08T05:58:16.300Z,74.71
2023-09-08T06:00:44.514Z,74.58
2023-09-08T06:03:12.669Z,74.57
2023-09-08T06:05:40.795Z,74.26
2023-09-08T06:08:08.604Z,74.61
2023-09-08T06:10:36.603Z,74.45
2023-09-08T06:13:04.748Z,74.38
2023-09-08T06:15:32.584Z,74.40
2023-09-08T06:18:00.613Z,74.65
2023-09-08T06:20:28.736Z,74.45
2023-09-08T06:22:56.812Z,74.71
2023-09-08T06:25:24.730Z,74.46
2023-09-08T06:27:52.694Z,74.51
2023-09-08T06:30:20.904Z,74.57
2023-09-08T06:32:49.092Z,74.45
2023-09-08T06:35:17.357Z,74.50
2023-09-08T06:37:45.460Z,74.53
2023-09-08T06:40:14.500Z,74.55
2023-09-08T06:42:42.492Z,74.34
2023-09-08T06:45:10.868Z,74.35
2023-09-08T06:47:39.257Z,74.11
2023-09-08T06:50:08.191Z,74.24
2023-09-08T06:52:36.177Z,74.28
2023-09-08T06:55:04.273Z,74.16
2023-09-08T06:57:32.316Z,74.05
2023-09-08T07:00:00.223Z,73.89
2023-09-08T07:02:29.311Z,74.04
2023-09-08T07:04:57.671Z,73.80
2023-09-08T07:07:26.444Z,73.77
2023-09-08T07:09:54.371Z,74.04
2023-09-08T07:12:22.500Z,74.18
2023-09-08T07:14:50.666Z,74.14
2023-09-08T07:17:18.693Z,74.12
2023-09-08T07:19:46.625Z,73.99
2023-09-08T07:22:14.732Z,74.17
2023-09-08T07:24:42.764Z,73.92
2023-09-08T07:27:10.747Z,73.91
2023-09-08T07:29:38.678Z,74.07
2023-09-08T07:32:06.684Z,73.98
2023-09-08T07:34:34.990Z,73.84
2023-09-08T07:37:02.929Z,73.98
2023-09-08T07:39:31.560Z,73.91
2023-09-08T07:42:01.919Z,73.82
2023-09-08T07:44:30.226Z,73.65
2023-09-08T07:46:58.231Z,73.69
2023-09-08T07:49:26.460Z,73.57
2023-09-08T07:51:54.440Z,73.74
2023-09-08T07:54:22.381Z,73.46
2023-09-08T07:56:50.456Z,73.10
2023-09-08T07:59:18.398Z,73.13
2023-09-08T08:01:46.425Z,73.10
2023-09-08T08:04:14.560Z,73.06
2023-09-08T08:06:42.678Z,72.80
2023-09-08T08:09:11.630Z,72.84
2023-09-08T08:11:39.549Z,73.13
2023-09-08T08:14:07.511Z,72.78
2023-09-08T08:16:36.001Z,72.60
2023-09-08T08:19:04.662Z,72.74
2023-09-08T08:21:32.670Z,72.57
2023-09-08T08:24:00.655Z,72.58
2023-09-08T08:26:31.123Z,72.44
2023-09-08T08:28:59.109Z,72.43
2023-09-08T08:31:27.049Z,72.10
2023-09-08T08:33:55.148Z,71.88
2023-09-08T08:36:23.423Z,71.45
2023-09-08T08:38:51.624Z,71.84
2023-09-08T08:41:19.472Z,71.86
2023-09-08T08:43:48.756Z,71.27
2023-09-08T08:46:17.760Z,71.25
2023-09-08T08:48:47.091Z,71.23
2023-09-08T08:51:17.163Z,71.00
2023-09-08T08:53:45.260Z,70.70
2023-09-08T08:56:13.244Z,69.95
2023-09-08T08:58:42.886Z,69.98
2023-09-08T09:01:12.715Z,70.14
2023-09-08T09:03:41.660Z,69.77
2023-09-08T09:06:11.694Z,69.66
2023-09-08T09:08:40.398Z,68.86
2023-09-08T09:11:08.562Z,69.00
2023-09-08T09:13:36.614Z,69.00
2023-09-08T09:16:05.620Z,68.71
2023-09-08T09:18:34.045Z,69.21
2023-09-08T09:21:02.879Z,69.13
2023-09-08T09:23:35.084Z,68.95
2023-09-08T09:26:05.397Z,69.26
2023-09-08T09:28:34.349Z,68.55
2023-09-08T09:31:02.679Z,68.69
2023-09-08T09:33:31.390Z,68.07
2023-09-08T09:36:00.486Z,67.40
2023-09-08T09:38:29.127Z,65.91
2023-09-08T09:40:57.714Z,66.29
2023-09-08T09:43:25.857Z,66.64
2023-09-08T09:45:54.757Z,65.72
2023-09-08T09:48:25.296Z,65.39
2023-09-08T09:50:53.218Z,65.25
2023-09-08T09:53:21.899Z,64.89
2023-09-08T09:55:49.884Z,64.89
2023-09-08T09:58:19.600Z,65.29
2023-09-08T10:00:49.770Z,64.69
2023-09-08T10:03:19.790Z,64.96
2023-09-08T10:05:49.607Z,63.41
2023-09-08T10:08:17.777Z,63.10
2023-09-08T10:10:47.677Z,62.98
2023-09-08T10:13:19.835Z,63.34
2023-09-08T10:15:48.787Z,63.38
2023-09-08T10:18:18.043Z,62.89
2023-09-08T10:20:46.327Z,62.61
2023-09-08T10:23:24.263Z,62.74
2023-09-08T10:25:56.080Z,62.09
2023-09-08T10:28:24.516Z,61.33
2023-09-08T10:30:53.168Z,61.67
2023-09-08T10:33:21.512Z,61.64
2023-09-08T10:35:49.529Z,61.75
2023-09-08T10:38:27.674Z,62.20
2023-09-08T10:41:18.633Z,61.74
2023-09-08T10:43:47.626Z,61.11
2023-09-08T10:46:27.650Z,59.61
2023-09-08T10:48:56.420Z,60.48
2023-09-08T10:51:25.970Z,60.87
2023-09-08T10:53:53.833Z,60.44
2023-09-08T10:56:22.078Z,60.97
2023-09-08T10:58:53.744Z,58.34
2023-09-08T11:01:28.688Z,59.40
2023-09-08T11:03:59.506Z,59.55
2023-09-08T11:06:31.911Z,57.81
2023-09-08T11:09:08.201Z,58.64
2023-09-08T11:11:38.089Z,59.34
2023-09-08T11:14:06.154Z,59.45
2023-09-08T11:16:34.645Z,58.22
2023-09-08T11:19:06.174Z,58.22
2023-09-08T11:21:36.609Z,58.53
2023-09-08T11:24:08.175Z,58.20
2023-09-08T11:26:36.112Z,58.06
2023-09-08T11:29:04.109Z,57.28
2023-09-08T11:31:33.046Z,55.62
2023-09-08T11:34:01.416Z,56.57
2023-09-08T11:36:30.669Z,55.82
2023-09-08T11:38:58.676Z,56.17
2023-09-08T11:41:26.622Z,55.52
2023-09-08T11:43:54.637Z,55.93
2023-09-08T11:46:22.915Z,55.70
2023-09-08T11:48:51.028Z,54.99
2023-09-08T11:51:23.930Z,55.93
2023-09-08T11:53:51.870Z,55.72
2023-09-08T11:56:19.679Z,55.49
2023-09-08T11:58:48.717Z,54.82
2023-09-08T12:01:17.253Z,54.62
2023-09-08T12:04:03.267Z,55.01
2023-09-08T12:06:31.463Z,54.75
2023-09-08T12:09:04.060Z,54.93
2023-09-08T12:11:36.597Z,54.36
2023-09-08T12:14:09.309Z,53.70
2023-09-08T12:16:37.714Z,54.03
2023-09-08T12:19:05.990Z,54.43
2023-09-08T12:21:44.450Z,54.45
2023-09-08T12:24:15.128Z,54.50
2023-09-08T12:26:43.140Z,53.65
2023-09-08T12:29:14.151Z,54.32
2023-09-08T12:31:42.243Z,54.24
2023-09-08T12:34:10.449Z,54.22
2023-09-08T12:36:39.258Z,53.97
2023-09-08T12:39:07.221Z,53.82
2023-09-08T12:41:35.218Z,53.48
2023-09-08T12:44:03.276Z,53.48
2023-09-08T12:46:33.378Z,52.64
2023-09-08T12:49:01.626Z,53.36
2023-09-08T12:51:29.594Z,52.33
2023-09-08T12:53:57.593Z,52.57
2023-09-08T12:56:25.526Z,51.95
2023-09-08T12:58:54.092Z,52.43
2023-09-08T13:01:22.967Z,51.66
2023-09-08T13:03:50.861Z,51.50
2023-09-08T13:06:18.867Z,51.34
2023-09-08T13:08:47.077Z,52.16
2023-09-08T13:11:15.068Z,51.98
2023-09-08T13:13:43.420Z,52.39
2023-09-08T13:16:11.448Z,51.99
2023-09-08T13:18:40.230Z,51.98
2023-09-08T13:21:08.384Z,51.58
2023-09-08T13:23:36.286Z,51.82
2023-09-08T13:26:04.156Z,51.91
2023-09-08T13:28:32.249Z,51.88
2023-09-08T13:31:00.401Z,51.83
2023-09-08T13:33:28.524Z,51.38
2023-09-08T13:35:57.243Z,51.35
2023-09-08T13:38:25.420Z,51.02
2023-09-08T13:40:54.398Z,50.93
2023-09-08T13:43:23.627Z,50.37
2023-09-08T13:45:52.296Z,50.47
2023-09-08T13:48:21.533Z,51.29
2023-09-08T13:50:51.020Z,50.13
2023-09-08T13:53:20.619Z,49.60
2023-09-08T13:55:51.539Z,50.16
2023-09-08T13:58:20.728Z,50.01
2023-09-08T14:00:53.554Z,49.91
2023-09-08T14:03:23.444Z,49.37
2023-09-08T14:05:54.601Z,49.69
2023-09-08T14:13:26.653Z,49.82
2023-09-08T14:15:55.593Z,50.14
2023-09-08T14:18:23.648Z,49.84
2023-09-08T14:20:51.637Z,49.50
2023-09-08T14:23:19.600Z,49.89
2023-09-08T14:25:47.602Z,50.59
2023-09-08T14:28:15.470Z,50.37
2023-09-08T14:30:43.980Z,50.37
2023-09-08T14:33:12.255Z,50.10
2023-09-08T14:35:47.431Z,49.69
2023-09-08T14:38:17.892Z,50.10
2023-09-08T14:40:47.039Z,49.75
2023-09-08T14:43:15.020Z,50.01
2023-09-08T14:45:43.294Z,49.88
2023-09-08T14:48:11.192Z,50.41
2023-09-08T14:50:39.651Z,49.69
2023-09-08T14:53:08.146Z,50.07
2023-09-08T14:55:36.616Z,49.64
2023-09-08T14:58:04.813Z,49.14
2023-09-08T15:00:33.061Z,49.39
2023-09-08T15:03:02.768Z,49.28
2023-09-08T15:05:31.975Z,49.06
2023-09-08T15:08:00.695Z,49.40
2023-09-08T15:10:29.209Z,49.91
2023-09-08T15:12:57.360Z,48.82
2023-09-08T15:15:25.451Z,49.32
2023-09-08T15:17:56.825Z,49.44
2023-09-08T15:20:24.819Z,48.71
2023-09-08T15:22:54.851Z,49.27
2023-09-08T15:25:22.720Z,48.59
2023-09-08T15:27:50.917Z,49.86
2023-09-08T15:30:18.884Z,49.66
2023-09-08T15:32:47.236Z,49.57
2023-09-08T15:35:15.361Z,49.35
2023-09-08T15:37:43.402Z,49.51
2023-09-08T15:40:15.480Z,49.94
2023-09-08T15:42:44.747Z,49.80
2023-09-08T15:45:15.133Z,50.32
2023-09-08T15:47:43.417Z,50.78
2023-09-08T15:50:12.258Z,51.33
2023-09-08T15:52:40.274Z,51.73
2023-09-08T15:55:08.434Z,52.37
2023-09-08T15:57:36.542Z,52.26
2023-09-08T16:00:04.895Z,52.49
2023-09-08T16:02:32.927Z,52.66
2023-09-08T16:05:01.237Z,52.92
2023-09-08T16:07:29.147Z,52.73
2023-09-08T16:09:57.016Z,53.30
2023-09-08T16:12:25.039Z,53.51
2023-09-08T16:14:53.222Z,53.76
2023-09-08T16:17:21.172Z,54.20
2023-09-08T16:19:49.690Z,54.30
2023-09-08T16:22:17.589Z,55.64
2023-09-08T16:24:46.228Z,56.10
2023-09-08T16:27:14.541Z,55.61
2023-09-08T16:29:43.180Z,54.82
2023-09-08T16:32:12.242Z,54.84
2023-09-08T16:34:40.454Z,54.94
2023-09-08T16:37:08.609Z,54.97
2023-09-08T16:39:36.521Z,55.23
2023-09-08T16:42:04.980Z,55.46
2023-09-08T16:44:32.977Z,55.49
2023-09-08T16:47:00.985Z,55.61
2023-09-08T16:49:29.435Z,55.61
2023-09-08T16:51:57.988Z,55.77
2023-09-08T16:54:27.042Z,55.91
2023-09-08T16:56:54.967Z,56.48
2023-09-08T16:59:23.463Z,56.15
2023-09-08T17:01:51.451Z,55.90
2023-09-08T17:04:19.747Z,55.97
2023-09-08T17:06:49.262Z,56.06
2023-09-08T17:09:18.558Z,56.45
2023-09-08T17:11:46.518Z,57.05
2023-09-08T17:14:14.594Z,57.25
2023-09-08T17:16:42.575Z,57.31
2023-09-08T17:19:11.319Z,57.39
2023-09-08T17:21:39.356Z,57.21
2023-09-08T17:24:07.697Z,57.01
2023-09-08T17:26:35.779Z,57.10
2023-09-08T17:29:03.686Z,57.48
2023-09-08T17:31:31.855Z,57.89
2023-09-08T17:33:59.748Z,58.20
2023-09-08T17:36:27.951Z,58.25
2023-09-08T17:38:55.774Z,58.40
2023-09-08T17:41:23.612Z,58.35
2023-09-08T17:43:51.551Z,58.45
2023-09-08T17:46:19.563Z,58.60
2023-09-08T17:48:47.672Z,58.69
2023-09-08T17:51:15.828Z,58.92
2023-09-08T17:53:43.761Z,58.93
2023-09-08T17:56:11.595Z,59.06
2023-09-08T17:58:39.603Z,59.24
2023-09-08T18:01:07.526Z,59.28
2023-09-08T18:03:36.086Z,59.50
2023-09-08T18:06:05.708Z,59.37
2023-09-08T18:08:33.741Z,59.28
2023-09-08T18:11:03.773Z,59.62
2023-09-08T18:13:31.872Z,59.70
2023-09-08T18:16:07.175Z,59.64
2023-09-08T18:18:35.952Z,59.84
2023-09-08T18:21:03.818Z,59.96
2023-09-08T18:23:31.961Z,59.91
2023-09-08T18:25:59.843Z,60.00
2023-09-08T18:28:27.898Z,60.24
2023-09-08T18:30:55.817Z,60.27
2023-09-08T18:33:23.924Z,60.20
2023-09-08T18:35:52.095Z,60.18
2023-09-08T18:38:20.095Z,60.31
2023-09-08T18:40:48.224Z,60.26
2023-09-08T18:43:16.745Z,60.58
2023-09-08T18:45:44.867Z,60.62
2023-09-08T18:48:13.166Z,60.85
2023-09-08T18:50:41.744Z,60.82
2023-09-08T18:53:11.005Z,60.87
2023-09-08T18:55:39.540Z,60.91
2023-09-08T18:58:09.046Z,61.22
2023-09-08T19:00:37.242Z,61.44
2023-09-08T19:03:05.603Z,61.45
2023-09-08T19:05:33.809Z,61.62
2023-09-08T19:08:02.349Z,61.58
2023-09-08T19:10:31.255Z,61.71
2023-09-08T19:12:59.264Z,61.92
2023-09-08T19:15:27.165Z,62.19
2023-09-08T19:17:55.707Z,62.18
2023-09-08T19:20:24.033Z,62.31
2023-09-08T19:22:52.024Z,62.39
2023-09-08T19:25:20.447Z,62.58
2023-09-08T19:27:48.352Z,62.73
2023-09-08T19:30:17.304Z,62.58
2023-09-08T19:32:45.646Z,62.76
2023-09-08T19:35:13.689Z,62.78
2023-09-08T19:37:41.639Z,63.00
2023-09-08T19:40:09.841Z,63.07
2023-09-08T19:42:37.862Z,63.25
2023-09-08T19:45:06.384Z,63.27
2023-09-08T19:47:34.368Z,63.46
2023-09-08T19:50:02.627Z,63.47
2023-09-08T19:52:30.601Z,63.57
2023-09-08T19:54:58.919Z,63.69
2023-09-08T19:57:26.821Z,63.93
2023-09-08T19:59:54.909Z,64.04
2023-09-08T20:02:22.921Z,64.13
2023-09-08T20:04:50.793Z,64.34
2023-09-08T20:07:19.237Z,64.70
2023-09-08T20:09:47.058Z,64.76
2023-09-08T20:12:14.999Z,64.85
2023-09-08T20:14:43.134Z,64.96
2023-09-08T20:17:11.045Z,65.00
2023-09-08T20:19:39.131Z,65.09
2023-09-08T20:22:07.205Z,65.39
2023-09-08T20:24:35.463Z,65.66
2023-09-08T20:27:03.538Z,65.77
2023-09-08T20:29:31.656Z,65.87
2023-09-08T20:31:59.841Z,66.03
2023-09-08T20:34:27.723Z,66.15
2023-09-08T20:36:56.096Z,66.51
2023-09-08T20:39:24.303Z,66.45
2023-09-08T20:41:52.370Z,66.36
2023-09-08T20:44:20.266Z,66.59
2023-09-08T20:46:48.219Z,66.65
2023-09-08T20:49:16.104Z,66.64
2023-09-08T20:51:43.941Z,66.85
2023-09-08T20:54:12.017Z,66.81
2023-09-08T20:56:40.151Z,66.73
2023-09-08T20:59:08.098Z,66.75
2023-09-08T21:01:37.070Z,66.79
2023-09-08T21:04:05.269Z,66.83
2023-09-08T21:06:33.149Z,66.78
2023-09-08T21:09:01.324Z,67.00
2023-09-08T21:11:29.293Z,67.21
2023-09-08T21:13:57.748Z,67.21
2023-09-08T21:16:25.780Z,67.04
2023-09-08T21:18:54.707Z,67.19
2023-09-08T21:21:22.569Z,67.34
2023-09-08T21:23:50.492Z,67.26
2023-09-08T21:26:18.413Z,67.24
2023-09-08T21:28:46.432Z,67.21
2023-09-08T21:31:14.672Z,67.46
2023-09-08T21:33:43.089Z,67.33
2023-09-08T21:36:15.814Z,67.51
2023-09-08T21:38:44.410Z,67.32
2023-09-08T21:41:15.716Z,67.31
2023-09-08T21:43:43.557Z,67.42
2023-09-08T21:46:12.050Z,67.37
2023-09-08T21:48:40.538Z,67.48
2023-09-08T21:51:10.238Z,67.70
2023-09-08T21:53:38.513Z,67.75
2023-09-08T21:56:07.315Z,67.74
2023-09-08T21:58:35.515Z,67.73
2023-09-08T22:01:04.155Z,67.83
2023-09-08T22:03:32.537Z,67.80
2023-09-08T22:06:00.862Z,67.75
2023-09-08T22:08:28.926Z,67.86
2023-09-08T22:11:03.356Z,68.09
2023-09-08T22:13:32.357Z,68.03
2023-09-08T22:16:03.309Z,68.07
2023-09-08T22:18:34.372Z,68.11
2023-09-08T22:21:02.395Z,68.37
2023-09-08T22:23:30.500Z,68.42
2023-09-08T22:25:58.427Z,68.57
2023-09-08T22:28:26.334Z,68.96
2023-09-08T22:30:54.962Z,68.93
2023-09-08T22:33:23.271Z,69.02
2023-09-08T22:35:51.358Z,68.78
2023-09-08T22:38:19.354Z,68.88
2023-09-08T22:40:47.208Z,68.80
2023-09-08T22:43:15.590Z,69.07
2023-09-08T22:45:44.122Z,69.07
2023-09-08T22:48:12.186Z,69.19
2023-09-08T22:50:41.339Z,69.31
2023-09-08T22:53:14.417Z,69.37
2023-09-08T22:55:42.796Z,69.61
2023-09-08T22:58:11.059Z,69.37
2023-09-08T23:00:39.219Z,69.46
2023-09-08T23:03:07.173Z,69.42
2023-09-08T23:05:35.785Z,69.58
2023-09-08T23:08:04.168Z,69.52
2023-09-08T23:10:32.180Z,69.65
2023-09-08T23:13:00.036Z,69.76
2023-09-08T23:15:29.997Z,69.80
2023-09-08T23:17:58.063Z,69.63
2023-09-08T23:20:26.601Z,69.84
2023-09-08T23:22:54.482Z,70.00
2023-09-08T23:25:22.398Z,70.13
2023-09-08T23:27:50.283Z,69.92
2023-09-08T23:30:18.279Z,69.91
2023-09-08T23:32:46.684Z,69.82
2023-09-08T23:35:14.631Z,69.87
2023-09-08T23:37:43.752Z,69.95
2023-09-08T23:40:13.078Z,70.19
2023-09-08T23:42:41.166Z,70.31
2023-09-08T23:45:10.323Z,70.36
2023-09-08T23:47:38.659Z,70.21
2023-09-08T23:50:07.724Z,70.34
2023-09-08T23:52:35.688Z,70.56
2023-09-08T23:55:04.281Z,70.51
2023-09-08T23:57:32.228Z,70.55
